Time;durP1;ratioP1;P1;durP2;ratioP2;P2;SDS_P1;SDS_P2;PMS_P1;PMS_P2;Temp;Humidity;BMP_temperature;BMP_pressure;BME280_temperature;BME280_humidity;BME280_pressure;Samples;Min_cycle;Max_cycle;Signal;HPM_P1;HPM_P2
2023/09/09 00:01:26;;;;;;;7.13;5.80;;;17.60;99.90;;;;;;5137205;27;20034;-70
2023/09/09 00:03:53;;;;;;;6.70;6.00;;;17.60;99.90;;;;;;5136963;27;20107;-71
2023/09/09 00:06:18;;;;;;;8.65;5.30;;;17.50;99.90;;;;;;5119561;27;20122;-72
2023/09/09 00:08:44;;;;;;;7.03;5.70;;;17.50;99.90;;;;;;5138489;27;20055;-73
2023/09/09 00:11:10;;;;;;;7.60;5.50;;;17.50;99.90;;;;;;5138051;27;20031;-72
2023/09/09 00:13:36;;;;;;;7.60;6.10;;;17.40;99.90;;;;;;5138442;27;20048;-73
2023/09/09 00:16:02;;;;;;;6.95;5.63;;;17.40;99.90;;;;;;5138549;27;20379;-72
2023/09/09 00:18:28;;;;;;;7.60;5.57;;;17.40;99.90;;;;;;5120201;27;20068;-73
2023/09/09 00:20:55;;;;;;;8.57;5.70;;;17.40;99.90;;;;;;5118582;27;20031;-72
2023/09/09 00:23:20;;;;;;;10.02;6.20;;;17.30;99.90;;;;;;5117836;27;20031;-72
2023/09/09 00:25:46;;;;;;;7.60;6.10;;;17.40;99.90;;;;;;5136607;27;20019;-72
2023/09/09 00:28:13;;;;;;;7.95;6.30;;;17.30;99.90;;;;;;5136478;27;20035;-72
2023/09/09 00:30:40;;;;;;;8.57;5.95;;;17.30;99.90;;;;;;5121892;27;20024;-72
2023/09/09 00:33:08;;;;;;;6.28;5.28;;;17.30;99.90;;;;;;5116935;28;20053;-72
2023/09/09 00:35:34;;;;;;;7.55;5.90;;;17.20;99.90;;;;;;5116079;28;20468;-72
2023/09/09 00:38:00;;;;;;;7.38;6.05;;;17.20;99.90;;;;;;5115997;28;20027;-72
2023/09/09 00:40:26;;;;;;;7.82;5.70;;;17.20;99.90;;;;;;5097767;28;20377;-72
2023/09/09 00:42:52;;;;;;;7.88;6.40;;;17.20;99.90;;;;;;5116445;28;20050;-72
2023/09/09 00:45:17;;;;;;;8.65;6.45;;;17.10;99.90;;;;;;5116007;28;20024;-72
2023/09/09 00:47:44;;;;;;;8.38;5.93;;;17.10;99.90;;;;;;5115999;28;20023;-72
2023/09/09 00:50:13;;;;;;;7.00;5.18;;;17.00;99.90;;;;;;5116263;28;20020;-72
2023/09/09 00:52:40;;;;;;;6.78;5.20;;;17.00;99.90;;;;;;5115885;28;20016;-72
2023/09/09 00:55:11;;;;;;;7.50;5.60;;;16.90;99.90;;;;;;5115933;28;20016;-72
2023/09/09 00:57:36;;;;;;;;;;;16.80;99.90;;;;;;5116375;28;20400;-72
2023/09/09 01:00:09;;;;;;;6.95;5.40;;;16.80;99.90;;;;;;5097641;28;19912;-72
2023/09/09 01:02:39;;;;;;;7.18;5.55;;;16.80;99.90;;;;;;5115437;28;20035;-72
2023/09/09 01:05:06;;;;;;;8.68;6.20;;;16.70;99.90;;;;;;5115139;28;20114;-71
2023/09/09 01:07:48;;;;;;;10.50;6.63;;;16.60;99.90;;;;;;5115315;28;20034;-72
2023/09/09 01:10:16;;;;;;;7.57;5.82;;;16.50;99.90;;;;;;5115743;28;20024;-72
2023/09/09 01:12:43;;;;;;;7.13;6.03;;;16.40;99.90;;;;;;5115240;28;20019;-72
2023/09/09 01:15:10;;;;;;;7.50;6.47;;;16.30;99.90;;;;;;5115171;28;20024;-72
2023/09/09 01:17:36;;;;;;;8.95;5.97;;;16.30;99.90;;;;;;5115273;28;20047;-72
2023/09/09 01:20:14;;;;;;;7.65;6.13;;;16.30;99.90;;;;;;5115005;28;20107;-71
2023/09/09 01:22:44;;;;;;;7.55;6.00;;;16.40;99.90;;;;;;5115071;28;20026;-72
2023/09/09 01:25:13;;;;;;;8.20;6.03;;;16.40;99.90;;;;;;5115221;28;20051;-72
2023/09/09 01:27:39;;;;;;;9.15;6.28;;;16.40;99.90;;;;;;5114861;28;20032;-72
2023/09/09 01:30:05;;;;;;;7.07;5.57;;;16.40;99.90;;;;;;5097122;28;20119;-72
2023/09/09 01:32:31;;;;;;;8.15;6.00;;;16.30;99.90;;;;;;5115048;28;20024;-71
2023/09/09 01:34:57;;;;;;;8.15;6.07;;;16.30;99.90;;;;;;5095648;28;20026;-71
2023/09/09 01:37:22;;;;;;;7.63;5.93;;;16.40;99.90;;;;;;5114438;28;20067;-71
2023/09/09 01:39:48;;;;;;;8.68;6.43;;;16.30;99.90;;;;;;5096045;28;20024;-71
2023/09/09 01:42:17;;;;;;;7.03;5.50;;;16.30;99.90;;;;;;5114142;28;20107;-71
2023/09/09 01:44:46;;;;;;;6.80;5.53;;;16.30;99.90;;;;;;5114403;28;20036;-71
2023/09/09 01:47:13;;;;;;;7.30;5.90;;;16.30;99.90;;;;;;5114583;28;20380;-71
2023/09/09 01:49:40;;;;;;;7.28;5.38;;;16.20;99.90;;;;;;5114758;28;20135;-71
2023/09/09 01:52:06;;;;;;;8.50;5.47;;;16.20;99.90;;;;;;5114158;28;20027;-71
2023/09/09 01:54:32;;;;;;;5.93;5.15;;;16.10;99.90;;;;;;5114326;28;20024;-71
2023/09/09 01:56:57;;;;;;;7.93;6.10;;;16.00;99.90;;;;;;5113871;28;20032;-71
2023/09/09 01:59:23;;;;;;;7.72;6.28;;;16.00;99.90;;;;;;5095940;28;20027;-72
2023/09/09 02:01:49;;;;;;;7.15;5.50;;;16.00;99.90;;;;;;5114171;28;20121;-71
2023/09/09 02:04:14;;;;;;;6.63;5.10;;;15.90;99.90;;;;;;5095808;28;20395;-71
2023/09/09 02:06:40;;;;;;;6.82;4.97;;;15.90;99.90;;;;;;5113980;28;20027;-71
2023/09/09 02:09:06;;;;;;;7.05;5.55;;;15.90;99.90;;;;;;5114195;28;20027;-71
2023/09/09 02:11:32;;;;;;;9.25;5.43;;;15.90;99.90;;;;;;5114010;28;20031;-71
2023/09/09 02:13:58;;;;;;;8.32;5.65;;;15.80;99.90;;;;;;5114144;28;20020;-71
2023/09/09 02:16:24;;;;;;;8.20;5.40;;;15.80;99.90;;;;;;5114050;28;20027;-71
2023/09/09 02:18:49;;;;;;;7.25;5.93;;;15.90;99.90;;;;;;5113867;28;20047;-71
2023/09/09 02:21:15;;;;;;;6.68;5.10;;;15.80;99.90;;;;;;5114408;28;20384;-72
2023/09/09 02:23:42;;;;;;;7.05;5.45;;;15.80;99.90;;;;;;5114679;28;20470;-72
2023/09/09 02:26:11;;;;;;;7.40;5.80;;;15.80;99.90;;;;;;5096047;28;20492;-72
2023/09/09 02:28:37;;;;;;;9.02;5.65;;;15.80;99.90;;;;;;5114525;28;20090;-72
2023/09/09 02:31:02;;;;;;;7.03;5.80;;;15.80;99.90;;;;;;5113991;28;20161;-71
2023/09/09 02:33:28;;;;;;;9.23;5.43;;;15.70;99.90;;;;;;5114236;28;20384;-72
2023/09/09 02:35:54;;;;;;;7.10;5.57;;;15.70;99.90;;;;;;5114662;28;20092;-71
2023/09/09 02:38:19;;;;;;;8.75;5.88;;;15.60;99.90;;;;;;5114180;28;20089;-72
2023/09/09 02:40:45;;;;;;;8.50;5.50;;;15.60;99.90;;;;;;5114032;28;20042;-71
2023/09/09 02:43:11;;;;;;;9.13;6.18;;;15.60;99.90;;;;;;5114629;28;20066;-72
2023/09/09 02:45:38;;;;;;;6.35;5.20;;;15.60;99.90;;;;;;5096101;28;20035;-72
2023/09/09 02:48:04;;;;;;;6.13;5.40;;;15.50;99.90;;;;;;5117668;28;20023;-72
2023/09/09 02:50:30;;;;;;;6.22;5.32;;;15.50;99.90;;;;;;5118175;28;20028;-72
2023/09/09 02:52:55;;;;;;;8.20;5.78;;;15.50;99.90;;;;;;5118317;28;20395;-72
2023/09/09 02:55:21;;;;;;;7.03;5.78;;;15.50;99.90;;;;;;5099731;28;20055;-72
2023/09/09 02:57:50;;;;;;;6.65;5.53;;;15.50;99.90;;;;;;5117719;28;20039;-72
2023/09/09 03:00:16;;;;;;;7.93;5.78;;;15.40;99.90;;;;;;5118269;28;20034;-72
2023/09/09 03:02:42;;;;;;;7.15;5.70;;;15.40;99.90;;;;;;5117616;28;20411;-72
2023/09/09 03:05:09;;;;;;;8.30;5.75;;;15.40;99.90;;;;;;5099305;28;20028;-72
2023/09/09 03:07:35;;;;;;;6.72;5.68;;;15.40;99.90;;;;;;5117375;28;20034;-72
2023/09/09 03:10:00;;;;;;;7.43;5.43;;;15.40;99.90;;;;;;5116994;28;20031;-72
2023/09/09 03:12:26;;;;;;;6.75;5.45;;;15.40;99.90;;;;;;5117993;28;20490;-72
2023/09/09 03:14:52;;;;;;;8.25;5.70;;;15.30;99.90;;;;;;5118359;28;20503;-72
2023/09/09 03:17:18;;;;;;;8.63;5.53;;;15.30;99.90;;;;;;5099937;28;20027;-72
2023/09/09 03:19:44;;;;;;;6.90;6.20;;;15.30;99.90;;;;;;5117210;28;20069;-72
2023/09/09 03:22:10;;;;;;;7.15;5.60;;;15.20;99.90;;;;;;5117352;28;20098;-72
2023/09/09 03:24:35;;;;;;;7.22;5.57;;;15.10;99.90;;;;;;5099103;28;20387;-72
2023/09/09 03:27:01;;;;;;;8.88;5.80;;;15.00;99.90;;;;;;5117713;28;20528;-72
2023/09/09 03:29:27;;;;;;;7.97;5.70;;;15.00;99.90;;;;;;5116973;28;20028;-71
2023/09/09 03:31:53;;;;;;;7.18;5.10;;;14.90;99.90;;;;;;5116878;28;20032;-71
2023/09/09 03:34:18;;;;;;;6.28;5.25;;;14.90;99.90;;;;;;5117300;28;20434;-72
2023/09/09 03:36:44;;;;;;;6.30;5.13;;;14.80;99.90;;;;;;5117103;28;20058;-71
2023/09/09 03:39:10;;;;;;;6.55;5.03;;;14.80;99.90;;;;;;5117425;28;20024;-71
2023/09/09 03:41:38;;;;;;;6.97;5.40;;;14.90;99.90;;;;;;5099060;28;20080;-72
2023/09/09 03:44:04;;;;;;;10.10;5.72;;;14.90;99.90;;;;;;5117654;28;20019;-72
2023/09/09 03:46:29;;;;;;;6.43;5.40;;;14.90;99.90;;;;;;5117939;28;20479;-72
2023/09/09 03:48:55;;;;;;;6.97;5.45;;;14.90;99.90;;;;;;5117866;28;20494;-72
2023/09/09 03:51:21;;;;;;;9.52;6.13;;;14.80;99.90;;;;;;5117088;28;20028;-72
2023/09/09 03:53:47;;;;;;;9.30;6.32;;;14.90;99.90;;;;;;5117365;28;20077;-72
2023/09/09 03:56:12;;;;;;;10.68;6.57;;;14.80;99.90;;;;;;5117442;28;20418;-72
2023/09/09 03:58:38;;;;;;;10.45;6.70;;;14.80;99.90;;;;;;5116766;28;20383;-72
2023/09/09 04:01:08;;;;;;;8.75;5.93;;;14.80;99.90;;;;;;5117035;28;20423;-72
2023/09/09 04:03:35;;;;;;;7.82;6.18;;;14.80;99.90;;;;;;5117231;28;20023;-72
2023/09/09 04:06:10;;;;;;;7.22;5.65;;;14.70;99.90;;;;;;5117073;28;20469;-72
2023/09/09 04:08:37;;;;;;;6.85;5.35;;;14.70;99.90;;;;;;5116455;28;20028;-72
2023/09/09 04:11:03;;;;;;;8.32;6.05;;;14.70;99.90;;;;;;5116526;28;20035;-72
2023/09/09 04:13:29;;;;;;;7.43;5.55;;;14.70;99.90;;;;;;5116156;28;20020;-72
2023/09/09 04:15:56;;;;;;;9.65;6.22;;;14.60;99.90;;;;;;5116555;28;20035;-72
2023/09/09 04:18:23;;;;;;;7.72;5.57;;;14.60;99.90;;;;;;5116245;28;20035;-72
2023/09/09 04:20:48;;;;;;;8.27;5.90;;;14.60;99.90;;;;;;5116431;28;20027;-72
2023/09/09 04:23:16;;;;;;;7.93;5.60;;;14.60;99.90;;;;;;5116050;28;20058;-72
2023/09/09 04:25:42;;;;;;;7.72;5.50;;;14.60;99.90;;;;;;5115721;28;20472;-71
2023/09/09 04:28:10;;;;;;;6.90;5.20;;;14.60;99.90;;;;;;5116344;28;20035;-72
2023/09/09 04:30:38;;;;;;;9.63;5.78;;;14.50;99.90;;;;;;5116383;28;20414;-72
2023/09/09 04:33:07;;;;;;;7.93;5.32;;;14.50;99.90;;;;;;5116409;28;20047;-72
2023/09/09 04:35:33;;;;;;;7.60;5.10;;;14.50;99.90;;;;;;5116746;28;20511;-72
2023/09/09 04:38:00;;;;;;;8.05;5.57;;;14.50;99.90;;;;;;5116016;28;20042;-72
2023/09/09 04:40:26;;;;;;;8.65;5.80;;;14.50;99.90;;;;;;5116301;28;20422;-72
2023/09/09 04:42:52;;;;;;;7.70;5.20;;;14.50;99.90;;;;;;5116094;28;20030;-71
2023/09/09 04:45:19;;;;;;;7.28;5.72;;;14.50;99.90;;;;;;5115915;28;20045;-72
2023/09/09 04:47:44;;;;;;;6.78;5.50;;;14.50;99.90;;;;;;5097912;28;20072;-72
2023/09/09 04:50:10;;;;;;;8.43;5.43;;;14.50;99.90;;;;;;5116215;28;20103;-72
2023/09/09 04:52:36;;;;;;;6.50;5.20;;;14.50;99.90;;;;;;5097525;28;20510;-71
2023/09/09 04:55:03;;;;;;;5.85;4.88;;;14.40;99.90;;;;;;5115558;28;20475;-71
2023/09/09 04:57:28;;;;;;;7.88;5.32;;;14.40;99.90;;;;;;5097179;28;20039;-72
2023/09/09 04:59:54;;;;;;;7.60;4.85;;;14.30;99.90;;;;;;5115558;28;20023;-71
2023/09/09 05:02:20;;;;;;;6.97;5.30;;;14.40;99.90;;;;;;5115107;28;20019;-71
2023/09/09 05:04:46;;;;;;;6.93;5.35;;;14.40;99.90;;;;;;5080232;28;20067;-72
2023/09/09 05:07:12;;;;;;;6.07;4.93;;;14.30;99.90;;;;;;5115166;28;20058;-72
2023/09/09 05:09:37;;;;;;;6.60;5.13;;;14.30;99.90;;;;;;5114372;28;20065;-72
2023/09/09 05:12:03;;;;;;;8.50;5.22;;;14.20;99.90;;;;;;5096523;28;20077;-72
2023/09/09 05:14:29;;;;;;;7.75;5.15;;;14.30;99.90;;;;;;5115028;28;20027;-71
2023/09/09 05:16:54;;;;;;;6.18;5.10;;;14.20;99.90;;;;;;5096940;28;20115;-71
2023/09/09 05:19:22;;;;;;;6.55;5.28;;;14.20;99.90;;;;;;5115344;28;20020;-72
2023/09/09 05:21:48;;;;;;;7.18;5.03;;;14.20;99.90;;;;;;5097204;28;20037;-72
2023/09/09 05:24:14;;;;;;;6.82;5.50;;;14.20;99.90;;;;;;5115113;28;20020;-71
2023/09/09 05:26:40;;;;;;;7.05;5.35;;;14.20;99.90;;;;;;5115063;28;20027;-71
2023/09/09 05:29:06;;;;;;;7.55;5.32;;;14.20;99.90;;;;;;5115328;28;20038;-71
2023/09/09 05:31:31;;;;;;;6.70;5.18;;;14.20;99.90;;;;;;5115091;28;20051;-71
2023/09/09 05:33:57;;;;;;;6.18;4.90;;;14.30;99.90;;;;;;5115382;28;20032;-71
2023/09/09 05:36:23;;;;;;;7.28;5.07;;;14.30;99.90;;;;;;5115042;28;20028;-72
2023/09/09 05:38:48;;;;;;;7.68;6.00;;;14.30;99.90;;;;;;5115486;28;20084;-72
2023/09/09 05:41:14;;;;;;;10.93;5.80;;;14.30;99.90;;;;;;5115836;28;20434;-72
2023/09/09 05:43:39;;;;;;;7.35;5.47;;;14.30;99.90;;;;;;5097817;28;20549;-72
2023/09/09 05:46:05;;;;;;;7.55;5.63;;;14.30;99.90;;;;;;5097842;28;20040;-71
2023/09/09 05:48:31;;;;;;;7.00;5.20;;;14.30;99.90;;;;;;5115666;28;20042;-71
2023/09/09 05:50:56;;;;;;;7.57;6.03;;;14.40;99.90;;;;;;5104363;28;20481;-71
2023/09/09 05:53:22;;;;;;;7.00;5.68;;;14.30;99.90;;;;;;5096215;28;20408;-71
2023/09/09 05:55:48;;;;;;;7.45;5.80;;;14.30;99.90;;;;;;5095631;28;20048;-71
2023/09/09 05:58:14;;;;;;;6.95;5.90;;;14.30;99.90;;;;;;5083124;28;20458;-71
2023/09/09 06:00:40;;;;;;;7.60;5.60;;;14.30;99.90;;;;;;5099396;28;20031;-71
2023/09/09 06:03:06;;;;;;;9.02;6.70;;;14.30;99.90;;;;;;5113864;28;20034;-72
2023/09/09 06:05:31;;;;;;;7.85;6.10;;;14.30;99.90;;;;;;5090311;28;20029;-71
2023/09/09 06:07:57;;;;;;;8.35;6.78;;;14.40;99.90;;;;;;5094080;28;20047;-71
2023/09/09 06:10:23;;;;;;;9.07;6.93;;;14.40;99.90;;;;;;5104042;28;20499;-71
2023/09/09 06:12:49;;;;;;;7.28;6.38;;;14.50;99.90;;;;;;5112938;28;20070;-71
2023/09/09 06:15:15;;;;;;;8.73;7.28;;;14.60;99.90;;;;;;5106099;28;20043;-71
2023/09/09 06:17:41;;;;;;;9.15;7.28;;;14.70;99.90;;;;;;5112907;28;20031;-71
2023/09/09 06:20:07;;;;;;;9.65;7.32;;;14.80;99.90;;;;;;5099140;28;20020;-71
2023/09/09 06:22:34;;;;;;;9.82;7.80;;;14.90;99.90;;;;;;5096213;28;20358;-71
2023/09/09 06:25:01;;;;;;;8.57;6.68;;;15.00;99.90;;;;;;5106984;28;20027;-71
2023/09/09 06:27:26;;;;;;;7.50;6.28;;;15.00;99.90;;;;;;5116990;28;20095;-71
2023/09/09 06:29:52;;;;;;;9.68;7.80;;;15.10;99.90;;;;;;5115162;28;20508;-71
2023/09/09 06:32:18;;;;;;;8.93;7.22;;;15.20;99.90;;;;;;5091918;28;20049;-71
2023/09/09 06:34:43;;;;;;;12.63;8.43;;;15.20;99.90;;;;;;5117134;28;20476;-71
2023/09/09 06:37:10;;;;;;;11.07;8.45;;;15.30;99.90;;;;;;5113804;28;20448;-71
2023/09/09 06:39:36;;;;;;;12.00;8.93;;;15.40;99.90;;;;;;5117076;28;20020;-71
2023/09/09 06:42:01;;;;;;;12.05;9.20;;;15.50;99.90;;;;;;5116993;28;20039;-72
2023/09/09 06:44:27;;;;;;;12.30;8.80;;;15.50;99.90;;;;;;5111324;28;20032;-71
2023/09/09 06:46:53;;;;;;;10.48;8.65;;;15.60;99.90;;;;;;5098509;28;20039;-71
2023/09/09 06:49:19;;;;;;;12.95;8.63;;;15.60;99.90;;;;;;5116981;28;20383;-71
2023/09/09 06:51:45;;;;;;;10.10;8.27;;;15.70;99.90;;;;;;5098360;28;20038;-71
2023/09/09 06:54:10;;;;;;;12.57;8.98;;;15.80;99.90;;;;;;5116699;28;20031;-71
2023/09/09 06:56:36;;;;;;;12.25;8.98;;;15.80;99.90;;;;;;5102767;28;20480;-71
2023/09/09 06:59:03;;;;;;;10.93;8.82;;;15.90;99.90;;;;;;5096125;28;20103;-71
2023/09/09 07:01:29;;;;;;;14.30;9.65;;;16.00;99.90;;;;;;5096088;28;20024;-71
2023/09/09 07:03:55;;;;;;;13.38;9.48;;;16.00;99.90;;;;;;5096206;28;20024;-71
2023/09/09 07:06:20;;;;;;;12.20;8.98;;;16.20;99.90;;;;;;5096350;28;20024;-71
2023/09/09 07:08:47;;;;;;;11.80;9.20;;;16.30;99.90;;;;;;5096758;28;20028;-72
2023/09/09 07:11:13;;;;;;;11.07;9.02;;;16.40;99.90;;;;;;5096521;28;20504;-72
2023/09/09 07:13:39;;;;;;;11.90;9.60;;;16.50;99.90;;;;;;5096605;28;20031;-72
2023/09/09 07:16:04;;;;;;;11.55;9.00;;;16.60;99.90;;;;;;5096778;28;20111;-72
2023/09/09 07:18:30;;;;;;;12.50;9.52;;;16.60;99.90;;;;;;5078388;28;20028;-72
2023/09/09 07:20:59;;;;;;;11.05;9.13;;;16.80;99.90;;;;;;5096806;28;20032;-72
2023/09/09 07:23:25;;;;;;;19.13;15.10;;;16.90;99.90;;;;;;5078317;28;20032;-72
2023/09/09 07:25:51;;;;;;;16.70;12.88;;;17.00;99.90;;;;;;5078463;28;20028;-72
2023/09/09 07:28:16;;;;;;;16.08;13.75;;;17.00;99.90;;;;;;5096565;28;20024;-72
2023/09/09 07:30:43;;;;;;;16.35;14.52;;;17.10;99.90;;;;;;5096219;28;20032;-72
2023/09/09 07:33:09;;;;;;;19.75;16.38;;;17.20;99.90;;;;;;5095211;28;20025;-72
2023/09/09 07:35:38;;;;;;;20.45;16.40;;;17.30;99.90;;;;;;5096464;28;20031;-72
2023/09/09 07:38:07;;;;;;;16.80;14.18;;;17.40;99.90;;;;;;5096126;28;20028;-71
2023/09/09 07:40:33;;;;;;;18.23;15.52;;;17.50;99.90;;;;;;5096433;28;20031;-71
2023/09/09 07:42:59;;;;;;;20.40;16.30;;;17.60;99.90;;;;;;5096041;28;20028;-71
2023/09/09 07:45:26;;;;;;;21.25;17.20;;;17.80;99.90;;;;;;5078070;28;20086;-71
2023/09/09 07:47:51;;;;;;;22.42;17.23;;;17.90;99.90;;;;;;5095941;28;20472;-71
2023/09/09 07:50:17;;;;;;;20.05;17.50;;;18.00;99.90;;;;;;5095818;28;20039;-70
2023/09/09 07:52:43;;;;;;;19.30;15.90;;;18.10;99.90;;;;;;5077633;28;20032;-71
2023/09/09 07:55:09;;;;;;;17.58;14.45;;;18.30;99.90;;;;;;5095906;28;20024;-71
2023/09/09 07:57:36;;;;;;;22.33;17.75;;;18.40;99.90;;;;;;5095922;28;20020;-72
2023/09/09 08:00:03;;;;;;;20.05;16.73;;;18.40;99.90;;;;;;5077738;28;20036;-71
2023/09/09 08:02:29;;;;;;;23.50;20.17;;;18.60;99.90;;;;;;5096009;28;20095;-72
2023/09/09 08:04:55;;;;;;;23.80;18.92;;;18.60;99.90;;;;;;5096000;28;20051;-72
2023/09/09 08:07:21;;;;;;;24.13;20.27;;;18.70;99.90;;;;;;5095738;28;20101;-71
2023/09/09 08:09:47;;;;;;;20.25;17.52;;;18.90;99.90;;;;;;5096080;28;20035;-71
2023/09/09 08:12:12;;;;;;;18.80;16.65;;;19.00;99.90;;;;;;5077617;28;20039;-71
2023/09/09 08:14:41;;;;;;;18.23;16.23;;;19.10;99.90;;;;;;5077670;28;20028;-72
2023/09/09 08:17:07;;;;;;;14.13;11.65;;;19.30;99.90;;;;;;5077435;28;20017;-71
2023/09/09 08:19:33;;;;;;;13.80;12.10;;;19.40;99.90;;;;;;5095839;28;20122;-72
2023/09/09 08:21:59;;;;;;;14.38;11.32;;;19.60;99.90;;;;;;5095595;28;20036;-72
2023/09/09 08:24:24;;;;;;;13.75;11.18;;;19.70;99.90;;;;;;5095361;28;20032;-72
2023/09/09 08:26:50;;;;;;;12.88;9.52;;;19.80;99.90;;;;;;5095649;28;20039;-72
2023/09/09 08:29:16;;;;;;;12.30;9.80;;;19.90;99.90;;;;;;5077148;28;20032;-73
2023/09/09 08:31:41;;;;;;;12.15;9.88;;;20.00;99.90;;;;;;5095123;28;20032;-73
2023/09/09 08:34:07;;;;;;;11.00;9.00;;;20.10;99.90;;;;;;5095402;28;20032;-72
2023/09/09 08:36:33;;;;;;;11.73;9.18;;;20.30;99.90;;;;;;5095155;28;20036;-72
2023/09/09 08:38:59;;;;;;;11.15;9.95;;;20.40;99.90;;;;;;5077042;28;20069;-72
2023/09/09 08:41:45;;;;;;;10.82;9.32;;;20.50;99.90;;;;;;5095165;28;20028;-72
2023/09/09 08:44:18;;;;;;;12.88;9.68;;;20.70;99.90;;;;;;5095069;28;20115;-72
2023/09/09 08:46:44;;;;;;;11.68;9.55;;;20.90;99.90;;;;;;5094820;28;20024;-72
2023/09/09 08:49:14;;;;;;;10.40;8.48;;;21.10;99.90;;;;;;5094890;28;20089;-72
2023/09/09 08:51:49;;;;;;;10.63;8.77;;;21.20;99.90;;;;;;5094576;28;20020;-72
2023/09/09 08:54:16;;;;;;;9.50;8.48;;;21.30;99.90;;;;;;5094986;28;20510;-72
2023/09/09 08:56:43;;;;;;;10.48;8.65;;;21.40;99.90;;;;;;5094488;28;20081;-72
2023/09/09 08:59:09;;;;;;;10.00;8.95;;;21.60;99.90;;;;;;5094735;28;20081;-72
2023/09/09 09:01:37;;;;;;;9.70;8.52;;;21.70;99.90;;;;;;5094378;28;20487;-72
2023/09/09 09:04:03;;;;;;;9.75;8.32;;;21.80;99.90;;;;;;5094783;28;20035;-72
2023/09/09 09:06:29;;;;;;;11.20;9.18;;;21.90;99.90;;;;;;5076276;28;20020;-72
2023/09/09 09:08:55;;;;;;;10.65;8.88;;;22.00;99.90;;;;;;5076154;28;20051;-72
2023/09/09 09:11:21;;;;;;;10.85;9.00;;;22.10;99.90;;;;;;5094264;28;20025;-72
2023/09/09 09:13:47;;;;;;;10.45;8.55;;;22.20;99.90;;;;;;5094273;28;20476;-72
2023/09/09 09:16:13;;;;;;;9.82;8.13;;;22.40;99.90;;;;;;5094226;28;20081;-72
2023/09/09 09:18:39;;;;;;;10.10;7.93;;;22.70;99.90;;;;;;5094116;28;20074;-72
2023/09/09 09:21:06;;;;;;;10.48;7.93;;;22.80;99.90;;;;;;5094144;28;20036;-72
2023/09/09 09:23:32;;;;;;;10.93;8.05;;;23.00;99.90;;;;;;5094176;28;20028;-72
2023/09/09 09:25:58;;;;;;;9.18;8.10;;;23.20;99.90;;;;;;5093950;28;20027;-72
2023/09/09 09:28:28;;;;;;;12.95;7.57;;;23.30;99.90;;;;;;5094089;28;20035;-72
2023/09/09 09:30:53;;;;;;;9.65;7.13;;;23.50;99.90;;;;;;5094123;28;20463;-72
2023/09/09 09:33:25;;;;;;;7.55;6.45;;;23.50;99.90;;;;;;5076260;28;20112;-72
2023/09/09 09:35:51;;;;;;;9.02;6.75;;;23.70;99.90;;;;;;5094291;28;20058;-72
2023/09/09 09:38:17;;;;;;;7.80;6.40;;;23.80;99.90;;;;;;5093965;28;20048;-72
2023/09/09 09:40:44;;;;;;;11.80;6.47;;;23.90;99.90;;;;;;5094052;28;20024;-72
2023/09/09 09:43:20;;;;;;;8.38;6.10;;;24.10;99.90;;;;;;5093838;28;20369;-72
2023/09/09 09:45:46;;;;;;;8.15;5.90;;;24.20;99.90;;;;;;5075710;28;20024;-72
2023/09/09 09:48:25;;;;;;;8.18;6.15;;;24.30;99.90;;;;;;5093776;28;20103;-72
2023/09/09 09:50:53;;;;;;;8.75;7.18;;;24.40;99.90;;;;;;5093971;28;20024;-73
2023/09/09 09:53:18;;;;;;;9.65;7.47;;;24.50;99.90;;;;;;5075789;28;20024;-73
2023/09/09 09:55:45;;;;;;;8.50;6.55;;;24.60;99.90;;;;;;5093249;28;20480;-72
2023/09/09 09:58:13;;;;;;;7.38;5.97;;;24.60;99.90;;;;;;5093464;28;20032;-72
2023/09/09 10:00:39;;;;;;;8.32;6.55;;;24.70;99.90;;;;;;5093505;28;20024;-72
2023/09/09 10:03:06;;;;;;;7.38;6.43;;;24.80;99.90;;;;;;5093589;28;20031;-73
2023/09/09 10:05:33;;;;;;;8.05;6.30;;;24.90;99.90;;;;;;5076453;28;20508;-72
2023/09/09 10:08:16;;;;;;;8.27;6.10;;;25.00;99.90;;;;;;5075365;28;20028;-73
2023/09/09 10:11:15;;;;;;;8.93;6.10;;;25.20;99.90;;;;;;5093440;28;20020;-74
2023/09/09 10:13:43;;;;;;;8.68;6.40;;;25.30;99.90;;;;;;5080582;28;20492;-74
2023/09/09 10:16:10;;;;;;;7.85;6.03;;;25.50;99.90;;;;;;5093966;28;20418;-74
2023/09/09 10:18:37;;;;;;;7.05;5.75;;;25.60;99.90;;;;;;5093370;28;20507;-74
2023/09/09 10:21:06;;;;;;;7.10;5.78;;;25.60;99.90;;;;;;5075243;28;20040;-73
2023/09/09 10:23:32;;;;;;;7.15;5.50;;;25.70;99.30;;;;;;5075344;28;20039;-73
2023/09/09 10:26:00;;;;;;;7.05;5.25;;;25.80;98.80;;;;;;5093708;28;20028;-73
2023/09/09 10:28:26;;;;;;;5.95;5.32;;;25.90;98.80;;;;;;5093596;28;20107;-73
2023/09/09 10:30:54;;;;;;;10.02;6.65;;;25.90;98.50;;;;;;5093343;28;20074;-73
2023/09/09 10:33:21;;;;;;;6.70;6.00;;;26.00;99.70;;;;;;5093336;28;20476;-74
2023/09/09 10:35:50;;;;;;;5.97;5.22;;;26.10;98.10;;;;;;5093500;28;20031;-73
2023/09/09 10:38:17;;;;;;;7.40;5.50;;;26.20;97.70;;;;;;5092854;28;20020;-73
2023/09/09 10:40:46;;;;;;;7.95;5.20;;;26.30;96.60;;;;;;5091406;28;20081;-74
2023/09/09 10:43:12;;;;;;;8.05;5.25;;;26.30;95.70;;;;;;5093042;28;20086;-74
2023/09/09 10:45:43;;;;;;;8.32;6.28;;;26.50;96.00;;;;;;5093685;28;20507;-74
2023/09/09 10:48:12;;;;;;;7.53;6.40;;;26.60;95.40;;;;;;5093181;28;20107;-74
2023/09/09 10:50:39;;;;;;;7.47;6.57;;;26.70;96.60;;;;;;5074772;28;20081;-74
2023/09/09 10:53:25;;;;;;;6.53;5.82;;;26.80;97.40;;;;;;5074986;28;20031;-74
2023/09/09 10:55:58;;;;;;;9.23;6.40;;;26.90;98.10;;;;;;5093411;28;20020;-74
2023/09/09 10:58:35;;;;;;;6.90;5.95;;;27.00;97.30;;;;;;5093013;28;20067;-74
2023/09/09 11:01:01;;;;;;;7.00;6.30;;;27.20;97.50;;;;;;5092970;28;20065;-73
2023/09/09 11:03:47;;;;;;;10.55;6.85;;;27.30;96.50;;;;;;5093001;28;20425;-74
2023/09/09 11:08:46;;;;;;;10.55;5.85;;;27.40;95.80;;;;;;5113554;22;20127;-83
2023/09/09 11:11:16;;;;;;;8.00;5.85;;;27.40;96.30;;;;;;5095399;28;20120;-83
2023/09/09 11:13:59;;;;;;;8.30;5.43;;;27.50;96.60;;;;;;5076649;28;20028;-83
2023/09/09 11:16:41;;;;;;;9.70;6.05;;;27.70;95.90;;;;;;5076555;28;20075;-83
2023/09/09 11:19:17;;;;;;;7.38;5.75;;;27.80;96.30;;;;;;5078420;28;20020;-83
2023/09/09 11:22:04;;;;;;;8.02;5.65;;;27.90;95.10;;;;;;5096658;28;20064;-83
2023/09/09 11:24:30;;;;;;;6.45;5.60;;;28.00;95.10;;;;;;5096516;28;20472;-83
2023/09/09 11:26:56;;;;;;;6.72;5.88;;;28.10;95.20;;;;;;5096995;28;20081;-83
2023/09/09 11:29:21;;;;;;;6.03;5.30;;;28.20;94.00;;;;;;5059122;28;20040;-83
2023/09/09 11:31:48;;;;;;;6.80;5.78;;;28.20;93.80;;;;;;5063241;28;20035;-83
2023/09/09 11:34:14;;;;;;;7.40;5.43;;;28.40;93.60;;;;;;5068255;28;20048;-83
2023/09/09 11:36:41;;;;;;;5.97;5.38;;;28.40;94.00;;;;;;5067926;28;20422;-83
2023/09/09 11:39:07;;;;;;;7.90;5.43;;;28.50;93.50;;;;;;5096313;28;20027;-83
2023/09/09 11:41:34;;;;;;;6.32;5.50;;;28.60;94.00;;;;;;5068265;28;20029;-83
2023/09/09 11:44:02;;;;;;;6.18;5.57;;;28.60;93.00;;;;;;5079185;28;20376;-83
2023/09/09 11:46:32;;;;;;;6.25;5.13;;;28.60;92.50;;;;;;5077781;28;20023;-83
2023/09/09 11:48:58;;;;;;;5.85;4.97;;;28.70;92.40;;;;;;5096219;28;20039;-83
2023/09/09 11:51:24;;;;;;;6.40;5.50;;;28.70;91.90;;;;;;5095947;28;20028;-83
2023/09/09 11:53:51;;;;;;;5.60;5.00;;;28.90;91.50;;;;;;5061186;28;20051;-83
2023/09/09 11:56:19;;;;;;;6.20;4.40;;;28.90;90.90;;;;;;5078225;28;20020;-83
2023/09/09 11:58:44;;;;;;;6.03;4.68;;;29.00;90.40;;;;;;5077904;28;20016;-83
2023/09/09 12:01:10;;;;;;;7.22;4.85;;;29.10;89.40;;;;;;5078166;28;20041;-83
2023/09/09 12:03:37;;;;;;;4.80;4.10;;;29.10;89.40;;;;;;5072345;28;20029;-83
2023/09/09 12:06:07;;;;;;;5.30;4.80;;;29.10;88.50;;;;;;5041114;28;20032;-83
2023/09/09 12:08:36;;;;;;;7.10;5.00;;;29.20;87.70;;;;;;5058020;28;20063;-83
2023/09/09 12:11:11;;;;;;;8.80;5.10;;;29.30;89.00;;;;;;5075165;28;20341;-83
2023/09/09 12:13:40;;;;;;;5.93;4.60;;;29.40;90.20;;;;;;5075697;28;20476;-83
2023/09/09 12:16:08;;;;;;;6.15;4.25;;;29.40;83.00;;;;;;5057436;28;20028;-83
2023/09/09 12:18:33;;;;;;;6.95;4.45;;;29.40;82.10;;;;;;5057552;28;20411;-83
2023/09/09 12:21:09;;;;;;;6.28;4.15;;;29.50;82.40;;;;;;5057245;28;20029;-83
2023/09/09 12:23:37;;;;;;;4.55;3.88;;;29.50;79.80;;;;;;5075505;28;20079;-83
2023/09/09 12:26:12;;;;;;;5.40;4.45;;;29.60;77.50;;;;;;5057190;28;20068;-83
2023/09/09 12:28:42;;;;;;;4.38;3.55;;;29.70;73.10;;;;;;5092925;28;20055;-83
2023/09/09 12:31:09;;;;;;;5.57;3.95;;;29.70;70.50;;;;;;5083652;28;20103;-83
2023/09/09 12:33:47;;;;;;;4.20;3.80;;;29.80;73.30;;;;;;5074379;28;20531;-82
2023/09/09 12:36:19;;;;;;;5.68;3.83;;;29.80;72.70;;;;;;5073638;28;20070;-84
2023/09/09 12:38:47;;;;;;;4.22;3.63;;;29.90;73.30;;;;;;5056975;28;20025;-83
2023/09/09 12:41:17;;;;;;;;;;;29.90;67.80;;;;;;5074566;28;20123;-83
2023/09/09 12:43:43;;;;;;;;;;;30.00;69.50;;;;;;5074157;28;19952;-83
2023/09/09 12:46:18;;;;;;;;;;;30.10;66.60;;;;;;5056624;28;20059;-83
2023/09/09 12:48:51;;;;;;;;;;;30.20;70.20;;;;;;5075372;28;19911;-83